22:17
Airports
Links
Donate
Help keep this website running!
PayPal
Bitcoin
METAR
LEMD 262200Z 24005KT CAVOK 26/07 Q1012 NOSIG
Current Weather Conditions at LEMD
VFR 22:00:00 26-06-17
Altimeter:29.88 hg
Temp:26.0°c 79°f
Dew point:7.0°c 45°f
Wind:5 knots, 5.8 mph, 3 m/s, from 240°
Visibility:6.21 statute miles
(CAVOK)
No significant weather changes expected within 2 hours.
Past METAR reports
VFR 21:30:00 26-06-17
Altimeter:29.88 hg
Temp:27.0°c 81°f
Dew point:7.0°c 45°f
Wind:7 knots, 8.1 mph, 4 m/s, from 240°
Visibility:6.21 statute miles
(CAVOK)
No significant weather changes expected within 2 hours.
LEMD 262130Z 24007KT CAVOK 27/07 Q1012 NOSIG
VFR 21:00:00 26-06-17
Altimeter:29.88 hg
Temp:28.0°c 82°f
Dew point:7.0°c 45°f
Wind:8 knots, 9.2 mph, 4 m/s, from 220°
Visibility:6.21 statute miles
(CAVOK)
No significant weather changes expected within 2 hours.
LEMD 262100Z 22008KT CAVOK 28/07 Q1012 NOSIG
VFR 20:30:00 26-06-17
Altimeter:29.88 hg
Temp:29.0°c 84°f
Dew point:7.0°c 45°f
Wind:9 knots, 10.4 mph, 5 m/s, from 220°
Visibility:6.21 statute miles
(CAVOK)
No significant weather changes expected within 2 hours.
LEMD 262030Z 22009KT CAVOK 29/07 Q1012 NOSIG
VFR 20:00:00 26-06-17
Altimeter:29.85 hg
Temp:29.0°c 84°f
Dew point:6.0°c 43°f
Wind:10 knots, 11.5 mph, 5 m/s, from 230°
Visibility:6.21 statute miles
(CAVOK)
No significant weather changes expected within 2 hours.
LEMD 262000Z 23010G20KT 210V340 CAVOK 29/06 Q1011 NOSIG
VFR 19:30:00 26-06-17
Altimeter:29.85 hg
Temp:30.0°c 86°f
Dew point:6.0°c 43°f
Wind:11 knots, 12.7 mph, 6 m/s, from 220°
Visibility:6.21 statute miles
(CAVOK)
No significant weather changes expected within 2 hours.
LEMD 261930Z 22011G22KT 160V250 CAVOK 30/06 Q1011 NOSIG
VFR 19:00:00 26-06-17
Altimeter:29.85 hg
Temp:30.0°c 86°f
Dew point:7.0°c 45°f
Wind:10 knots, 11.5 mph, 5 m/s, from 210°
Visibility:6.21 statute miles
(CAVOK)
No significant weather changes expected within 2 hours.
LEMD 261900Z 21010KT 180V240 CAVOK 30/07 Q1011 NOSIG
TAF
TAF LEMD 261700Z 2618/2724 23012KT CAVOK TX30/2618Z TN17/2705Z BECMG 2620/2622 VRB05KT BECMG 2705/2707 23012KT TEMPO 2712/2718 23020G32KT
Forecast at LEMD
18:00 26-06-17 to 20:00 26-06-17
Wind:12 Knots from 230°
Visibility:6.21 statute miles
NSC
BECMG 20:00 26-06-17 to 05:00 27-06-17
Wind:5 Knots from 360°
Visibility:6.21 statute miles
NSC
BECMG 05:00 27-06-17 to 00:00 28-06-17
Wind:12 Knots from 230°
Visibility:6.21 statute miles
NSC
TEMPO 12:00 27-06-17 to 18:00 27-06-17
Wind:20 Knots from 230°